TimeCST,TemperatureF,Dew PointF,Humidity,Sea Level PressureIn,VisibilityMPH,Wind Direction,Wind SpeedMPH,Gust SpeedMPH,PrecipitationIn,Events,Conditions,WindDirDegrees,DateUTC
12:53 AM,23.0,21.0,92,29.97,5.0,South,5.8,-,N/A,,Clear,190,2013-02-05 06:53:00
1:53 AM,24.1,21.0,88,29.96,5.0,South,8.1,-,N/A,,Clear,180,2013-02-05 07:53:00
2:53 AM,24.1,21.0,88,29.95,5.0,South,8.1,-,N/A,,Clear,180,2013-02-05 08:53:00
3:53 AM,26.1,23.0,88,29.93,6.0,South,10.4,-,N/A,,Clear,180,2013-02-05 09:53:00
4:53 AM,28.0,24.1,85,29.94,7.0,South,9.2,-,N/A,,Clear,190,2013-02-05 10:53:00
5:53 AM,28.9,25.0,85,29.96,7.0,SSW,9.2,-,N/A,,Clear,200,2013-02-05 11:53:00
6:53 AM,24.1,21.9,91,30.00,5.0,NW,8.1,-,N/A,,Clear,320,2013-02-05 12:53:00
7:53 AM,28.0,23.0,81,30.01,5.0,SW,8.1,-,N/A,,Haze,230,2013-02-05 13:53:00
8:53 AM,39.9,30.0,68,30.00,10.0,WSW,6.9,-,N/A,,Clear,250,2013-02-05 14:53:00
9:53 AM,45.0,28.9,53,30.02,10.0,WNW,16.1,21.9,N/A,,Clear,300,2013-02-05 15:53:00
10:53 AM,48.9,28.9,46,30.04,10.0,NW,11.5,-,N/A,,Clear,320,2013-02-05 16:53:00
11:53 AM,55.0,28.0,35,30.04,10.0,WNW,8.1,-,N/A,,Clear,300,2013-02-05 17:53:00
12:53 PM,59.0,27.0,29,30.03,10.0,North,9.2,-,N/A,,Clear,360,2013-02-05 18:53:00
1:53 PM,60.1,27.0,28,30.02,10.0,Variable,4.6,16.1,N/A,,Clear,0,2013-02-05 19:53:00
2:53 PM,62.1,26.1,25,30.01,10.0,North,6.9,-,N/A,,Clear,360,2013-02-05 20:53:00
3:53 PM,61.0,28.0,29,30.01,10.0,NNE,12.7,17.3,N/A,,Clear,20,2013-02-05 21:53:00
4:53 PM,59.0,28.0,31,30.02,10.0,NNE,6.9,-,N/A,,Clear,20,2013-02-05 22:53:00
5:53 PM,52.0,28.0,40,30.03,10.0,NE,5.8,-,N/A,,Clear,40,2013-02-05 23:53:00
6:53 PM,51.1,28.0,41,30.06,10.0,NE,5.8,-,N/A,,Clear,40,2013-02-06 00:53:00
7:53 PM,46.9,28.0,48,30.07,10.0,ENE,4.6,-,N/A,,Clear,70,2013-02-06 01:53:00
8:53 PM,42.1,27.0,55,30.09,10.0,NE,6.9,-,N/A,,Clear,50,2013-02-06 02:53:00
9:53 PM,41.0,27.0,57,30.10,10.0,ESE,3.5,-,N/A,,Clear,110,2013-02-06 03:53:00
10:53 PM,37.9,26.1,62,30.10,10.0,ESE,6.9,-,N/A,,Clear,110,2013-02-06 04:53:00
11:53 PM,36.0,26.1,67,30.09,10.0,East,5.8,-,N/A,,Clear,80,2013-02-06 05:53:00